Warning: Javascript must be enabled to use all the features on this page!


Page Loading - Please Wait...

Click to hideNews Bulletins
  • Please see news on new formats
  • UPDATE, 11/9: As of November 8, the USGS has successfully restored all of the operational gages that stopped transmitting due to an issue with the satellite telemetry system that records and transmits data. The USGS will now focus on restoring other equipment that experienced the telemetry issues, including about 85 rapid deployment gages that are used periodically for emergency response. Read more
  • Full News RSS icon

USGS 021108125 WACCAMAW RIVER NEAR PAWLEYS ISLAND, SC

PROVISIONAL DATA SUBJECT TO REVISION

Click to hidestation-specific text

Funding for this station has been DISCONTINUED by the cooperating agency effective July 1, 2014.

For more information on what is needed to keep this gage operating, please call John Shelton at 803-767-5542 or email at jmshelto@usgs.gov

Available Parameters Available Period
All 4 Available Parameters for this site
  
00010 Temperature, water 2007-10-01  2018-11-12
00065 Gage height 2007-10-01  2018-11-12
00095 Specific cond at 25C 2007-10-01  2018-11-12
00480 Salinity 2013-05-02  2018-09-16

Graph
Graph w/ stats
Graph w/o stats
Graph w/ (up to 3) parms
Table
Tab-separated
Days  (13)
 

  -- or --
Begin date
 

End date
 

Summary of all available data for this site
Instantaneous-data availability statement
Gage height, feet
TIMESep 15Sep 16Sep 17Sep 18Sep 19Sep 20Sep 21Sep 22Sep 23Sep 24Sep 25Sep 26Sep 27Sep 28
00:00 EDT4.78P  5.73P  6.38P  5.44P  5.12P  5.73P  6.57P  7.32P  8.10P  9.20P   11.00P  11.26P  11.16P  
00:15 EDT5.05P  5.87P  6.34P  5.38P  5.05P  5.62P  6.48P  7.25P  8.05P  9.17P   11.03P  11.27P  11.20P  
00:30 EDT5.27P  6.07P  6.32P  5.33P  4.96P  5.52P  6.38P  7.17P  8.01P  9.15P   11.04P  11.30P  11.21P  
00:45 EDT5.47P  6.28P  6.32P  5.28P  4.90P  5.42P  6.29P  7.08P  7.96P  9.13P   11.04P  11.31P  11.25P  
01:00 EDT5.65P  6.43P  6.37P  5.26P  4.84P  5.32P  6.18P  7.01P  7.89P  9.10P   11.04P  11.32P  11.26P  
01:15 EDT5.84P  6.60P  6.43P  5.26P  4.80P  5.23P  6.09P  6.93P  7.85P  9.08P   11.05P  11.33P  11.26P  
01:30 EDT6.00P  6.73P  6.52P  5.29P  4.78P  5.15P  6.00P  6.84P  7.79P  9.06P   11.05P  11.34P  11.27P  
01:45 EDT6.15P  6.85P  6.59P  5.34P  4.76P  5.08P  5.91P  6.76P  7.75P  9.04P   11.04P  11.34P  11.28P  
02:00 EDT6.27P  6.97P  6.68P  5.44P  4.77P  5.02P  5.82P  6.68P  7.69P  9.01P   11.05P  11.31P  11.29P  
02:15 EDT6.35P  7.08P  6.76P  5.54P  4.80P  4.97P  5.75P  6.59P  7.63P  8.97P   11.01P  11.33P  11.27P  
02:30 EDT6.43P  7.14P  6.85P  5.66P  4.89P  4.94P  5.67P  6.51P  7.58P  8.96P   11.00P  11.33P  11.29P  
02:45 EDT6.51P  7.21P  6.92P  5.79P  5.01P  4.93P  5.60P  6.43P  7.53P  8.94P   11.01P  11.32P  11.27P  
03:00 EDT6.55P  7.27P  7.00P  5.91P  5.13P  4.96P  5.54P  6.36P  7.47P  8.91P   10.99P  11.30P  11.27P  
03:15 EDT6.57P  7.33P  7.08P  6.05P  5.29P  5.03P  5.50P  6.31P  7.43P  8.89P   10.96P  11.30P  11.27P  
03:30 EDT6.58P  7.38P  7.15P  6.16P  5.46P  5.14P  5.48P  6.23P  7.38P  8.87P   10.94P  11.29P  11.25P  
03:45 EDT6.58P  7.42P  7.22P  6.26P  5.65P  5.29P  5.50P  6.18P  7.35P  8.83P   10.92P  11.26P  11.22P  
04:00 EDT6.59P  7.44P  7.27P  6.35P  5.82P  5.46P  5.55P  6.14P  7.30P  8.81P   10.94P  11.23P  11.22P  
04:15 EDT6.54P  7.46P  7.30P  6.43P  5.97P  5.66P  5.65P  6.12P  7.27P  8.78P   10.88P  11.22P  11.19P  
04:30 EDT6.46P  7.47P  7.33P  6.51P  6.11P  5.86P  5.79P  6.10P  7.22P  8.76P   10.87P  11.20P  11.19P  
04:45 EDT6.36P  7.47P  7.35P  6.55P  6.23P  6.04P  5.95P  6.13P  7.20P  8.74P   10.84P  11.18P  11.17P  
05:00 EDT6.27P  7.44P  7.36P  6.59P  6.34P  6.22P  6.13P  6.16P  7.19P  8.71P   10.83P  11.18P  11.16P  
05:15 EDT6.14P  7.40P  7.35P  6.63P  6.43P  6.37P  6.31P  6.24P  7.17P  8.70P   10.81P  11.14P  11.14P  
05:30 EDT5.99P  7.34P  7.33P  6.65P  6.51P  6.49P  6.47P  6.34P  7.17P  8.68P   10.81P  11.13P  11.11P  
05:45 EDT5.85P  7.27P  7.30P  6.65P  6.57P  6.59P  6.62P  6.48P  7.21P  8.68P   10.79P  11.09P  11.10P  
06:00 EDT5.73P  7.19P  7.26P  6.65P  6.65P  6.67P  6.75P  6.60P  7.25P  8.68P   10.78P  11.09P  11.07P  
06:15 EDT5.57P  7.10P  7.21P  6.63P  6.68P  6.74P  6.87P  6.71P  7.32P  8.68P   10.75P  11.06P  11.04P  
06:30 EDT5.43P  7.00P  7.14P  6.60P  6.70P  6.79P  6.97P  6.83P  7.40P  8.68P   10.73P  11.07P  11.01P  
06:45 EDT5.27P  6.90P  7.07P  6.55P  6.70P  6.83P  7.06P  6.93P  7.48P  8.71P   10.70P  11.02P  11.02P  
07:00 EDT5.16P  6.83P  6.99P  6.50P  6.69P  6.86P  7.14P  7.02P  7.56P  8.74P   10.70P  11.03P  10.99P  
07:15 EDT5.03P  6.75P  6.91P  6.43P  6.65P  6.87P  7.20P  7.11P  7.65P  8.78P   10.72P  10.98P  10.98P  
07:30 EDT4.91P  6.66P  6.83P  6.34P  6.60P  6.86P  7.23P  7.19P  7.74P  8.83P   10.68P  11.00P  10.93P  
07:45 EDT4.79P  6.58P  6.76P  6.26P  6.53P  6.84P  7.29P  7.27P  7.82P  8.87P   10.69P  10.97P  10.92P  
08:00 EDT4.67P  6.49P  6.67P  6.18P  6.47P  6.81P  7.31P  7.34P  7.91P  8.92P   10.69P  10.94P  10.91P  
08:15 EDT4.56P  6.39P  6.59P  6.09P  6.39P  6.76P  7.31P  7.41P  8.00P  8.99P   10.70P  10.94P  10.89P  
08:30 EDT4.46P  6.30P  6.51P  5.98P  6.29P  6.71P  7.30P  7.47P  8.09P  9.04P   10.69P  10.92P  10.90P  
08:45 EDT4.36P  6.22P  6.43P   6.20P  6.65P  7.27P  7.51P  8.17P  9.11P   10.71P  10.95P  10.87P  
09:00 EDT4.30P  6.12P  6.34P  5.77P  6.09P  6.57P  7.23P  7.53P  8.25P  9.17P   10.75P  10.92P  10.85P  
09:15 EDT4.21P  6.03P  6.26P  5.67P  5.98P  6.49P  7.20P  7.56P  8.31P  9.24P   10.76P  10.94P  10.85P  
09:30 EDT4.18P  5.94P  6.17P  5.57P  5.88P  6.40P  7.14P  7.56P  8.37P  9.29P   10.79P  10.94P  10.82P  
09:45 EDT4.17P  5.86P  6.08P  5.48P  5.76P  6.30P  7.08P  7.57P  8.42P  9.35P   10.86P  10.97P  10.83P  
10:00 EDT4.23P  5.78P  6.00P  5.38P  5.65P  6.20P  7.00P  7.55P  8.45P  9.40P   10.88P  10.98P  10.83P  
10:15 EDT4.32P  5.73P  5.92P  5.28P  5.56P  6.09P  6.93P  7.54P  8.47P  9.45P   10.92P  11.02P  10.85P  
10:30 EDT4.46P  5.70P  5.85P  5.19P  5.45P  5.99P  6.86P  7.51P  8.48P  9.49P   10.94P  11.05P  10.86P  
10:45 EDT4.74P  5.65P  5.77P  5.11P  5.34P  5.88P  6.78P  7.47P  8.48P  9.52P   11.00P  11.08P  10.88P  
11:00 EDT5.07P  5.65P  5.72P  5.04P  5.24P  5.77P  6.69P  7.43P  8.47P  9.55P   11.03P  11.10P  10.91P  
11:15 EDT5.40P  5.64P  5.66P  4.97P  5.15P  5.67P  6.60P  7.38P  8.45P  9.56P   11.08P  11.13P  10.94P  
11:30 EDT5.71P  5.71P  5.61P  4.89P  5.05P  5.56P  6.52P  7.32P  8.44P  9.57P  10.64P  11.10P  11.16P  10.95P  
11:45 EDT5.98P  5.84P  5.58P  4.83P  4.97P  5.46P  6.43P  7.27P  8.41P  9.58P  10.68P  11.13P  11.20P  10.99P  
12:00 EDT6.19P  6.04P  5.55P  4.79P  4.89P  5.37P  6.34P  7.22P  8.38P  9.57P  10.69P  11.15P  11.24P  11.00P  
12:15 EDT6.35P  6.26P  5.49P  4.75P  4.82P  5.27P  6.24P  7.15P  8.35P  9.58P  10.70P  11.18P  11.26P  11.03P  
12:30 EDT6.50P  6.44P  5.55P  4.73P  4.75P  5.18P  6.16P  7.10P  8.32P  9.57P  10.71P  11.19P  11.27P  11.05P  
12:45 EDT6.61P  6.60P  5.58P  4.72P  4.70P  5.08P  6.06P  7.03P  8.28P  9.56P  10.71P  11.19P  11.29P  11.10P  
13:00 EDT6.71P  6.76P  5.63P  4.73P  4.67P  5.00P  5.98P  6.96P  8.26P  9.55P  10.72P  11.20P  11.31P  11.10P  
13:15 EDT6.80P  6.90P  5.72P  4.78P  4.64P  4.94P  5.90P  6.89P  8.22P  9.55P  10.72P  11.20P  11.33P  11.13P  
13:30 EDT6.90P  7.02P  5.82P  4.85P  4.65P  4.88P  5.81P  6.83P  8.19P  9.53P  10.70P  11.20P  11.33P  11.14P  
13:45 EDT6.98P  7.14P  5.93P  4.96P  4.69P  4.83P   6.76P  8.16P  9.52P  10.69P  11.20P  11.35P  11.15P  
14:00 EDT7.06P  7.23P  6.08P  5.09P  4.78P  4.81P  5.66P  6.70P  8.13P  9.50P  10.69P  11.19P  11.32P  11.15P  
14:15 EDT7.13P  7.33P  6.22P  5.25P  4.91P  4.78P  5.56P  6.65P  8.10P  9.48P  10.68P  11.18P  11.33P  11.17P  
14:30 EDT7.21P  7.41P  6.39P  5.43P  5.05P  4.80P  5.49P  6.58P  8.08P   10.65P  11.17P  11.32P  11.16P  
14:45 EDT7.28P  7.48P  6.53P  5.60P  5.23P  4.86P  5.44P  6.52P  8.04P   10.67P  11.16P  11.34P  11.15P  
15:00 EDT7.35P  7.56P  6.66P  5.78P  5.43P  4.94P  5.43P  6.47P  8.00P   10.65P  11.15P  11.32P  11.14P  
15:15 EDT7.43P  7.62P  6.78P  5.96P  5.64P  5.08P  5.39P  6.41P  7.97P   10.63P  11.13P  11.30P  11.13P  
15:30 EDT7.50P  7.67P  6.88P  6.14P  5.85P  5.25P  5.39P  6.37P  7.94P   10.61P  11.12P  11.31P  11.14P  
15:45 EDT7.55P  7.73P  6.98P  6.29P  6.04P  5.47P  5.43P  6.33P  7.91P   10.59P  11.10P  11.29P  11.11P  
16:00 EDT7.60P  7.78P  7.09P  6.44P  6.23P  5.70P  5.51P  6.31P  7.88P   10.59P  11.08P  11.26P  11.10P  
16:15 EDT7.63P  7.84P  7.18P  6.56P  6.39P  5.93P  5.62P  6.28P  7.85P   10.56P  11.07P  11.27P  11.11P  
16:30 EDT7.65P  7.89P  7.24P  6.67P  6.53P  6.14P  5.76P  6.28P  7.83P   10.53P  11.05P  11.22P  11.09P  
16:45 EDT7.65P  7.92P  7.30P  6.76P  6.64P  6.34P  5.94P  6.30P  7.81P   10.55P  11.05P  11.21P  11.06P  
17:00 EDT7.64P  7.95P  7.36P  6.82P  6.76P  6.50P  6.13P  6.35P  7.78P   10.51P  11.03P  11.19P  11.04P  
17:15 EDT7.59P  7.97P  7.39P  6.88P  6.86P  6.64P  6.34P  6.43P  7.78P   10.49P  11.01P  11.18P  11.02P  
17:30 EDT7.53P  7.98P  7.41P  6.92P  6.95P  6.76P  6.53P  6.56P  7.78P   10.47P  11.00P  11.17P  11.00P  
17:45 EDT7.43P  7.96P  7.42P  6.96P  7.03P  6.87P  6.68P  6.68P  7.77P   10.45P  10.96P  11.15P  10.97P  
18:00 EDT7.32P  7.92P  7.41P  6.99P  7.10P  6.97P  6.84P  6.81P  7.80P   10.43P  10.94P  11.14P  10.96P  
18:15 EDT7.21P  7.87P  7.39P  7.01P  7.16P  7.06P  6.97P  6.93P  7.83P   10.42P  10.94P  11.10P  10.94P  
18:30 EDT7.09P  7.82P  7.36P  7.01P  7.21P  7.14P  7.10P  7.05P  7.89P   10.42P  10.92P  11.08P  10.93P  
18:45 EDT6.97P  7.74P  7.30P  6.99P  7.25P  7.22P  7.22P  7.17P  7.94P   10.42P  10.91P  11.07P  10.92P  
19:00 EDT6.86P  7.67P  7.24P  6.97P  7.28P  7.28P  7.33P  7.28P  8.01P   10.40P  10.89P  11.04P  10.88P  
19:15 EDT6.78P  7.63P  7.16P  6.93P  7.29P  7.34P  7.43P  7.40P  8.09P   10.40P  10.85P  11.02P  10.84P  
19:30 EDT6.68P  7.58P  7.08P  6.87P  7.27P  7.39P  7.53P  7.52P  8.17P   10.38P  10.86P  11.02P  10.84P  
19:45 EDT6.60P  7.58P  7.00P  6.82P  7.25P  7.43P  7.62P  7.64P  8.25P   10.40P  10.86P  10.99P  10.83P  
20:00 EDT6.52P  7.47P  6.91P  6.74P  7.22P  7.46P  7.71P  7.76P  8.35P   10.42P  10.83P  10.98P  10.77P  
20:15 EDT6.42P  7.41P  6.81P  6.66P  7.18P  7.48P  7.79P  7.87P  8.45P   10.41P  10.84P  10.96P  10.76P  
20:30 EDT6.32P  7.32P  6.72P  6.58P  7.12P  7.48P  7.86P  7.98P  8.54P   10.43P  10.85P  10.94P  10.75P  
20:45 EDT6.23P  7.26P  6.62P  6.50P  7.05P  7.47P  7.90P  8.07P  8.64P   10.48P  10.85P  10.93P  10.73P  
21:00 EDT6.13P  7.17P  6.52P  6.40P  6.97P  7.45P  7.94P  8.15P  8.74P   10.51P  10.86P  10.93P  10.71P  
21:15 EDT6.03P  7.07P  6.42P  6.29P  6.88P  7.42P  7.95P  8.22P  8.83P   10.57P  10.88P  10.92P  10.71P  
21:30 EDT5.93P  6.99P  6.31P  6.20P  6.79P  7.37P  7.94P  8.27P  8.92P   10.60P  10.92P  10.94P  10.68P  
21:45 EDT5.84P  6.91P  6.21P  6.08P  6.70P  7.31P  7.92P  8.31P  9.00P   10.66P  10.94P  10.95P  10.69P  
22:00 EDT5.76P  6.92P  6.10P  5.98P  6.60P  7.25P  7.89P  8.32P  9.08P   10.70P  10.96P  10.96P  10.66P  
22:15 EDT5.67P  6.84P  6.01P  5.86P  6.50P  7.17P  7.84P  8.33P  9.12P   10.75P  10.99P  10.97P  10.68P  
22:30 EDT5.59P  6.78P  5.91P  5.76P  6.39P  7.10P  7.79P  8.32P  9.17P   10.79P  11.03P  11.00P  10.70P  
22:45 EDT5.54P  6.71P  5.82P  5.63P  6.28P  7.02P  7.71P  8.30P  9.20P   10.84P  11.06P  11.01P  10.67P  
23:00 EDT5.50P  6.63P  5.74P  5.53P  6.17P  6.93P  7.64P  8.27P  9.21P   10.91P  11.13P  11.05P  10.70P  
23:15 EDT5.50P  6.55P  5.66P  5.41P  6.06P  6.84P  7.57P  8.24P  9.22P   10.93P  11.15P  11.08P  10.72P  
23:30 EDT5.52P  6.49P  5.57P  5.32P  5.94P  6.76P  7.48P  8.20P  9.22P   10.95P  11.18P  11.10P  10.71P  
23:45 EDT5.60P  6.43P  5.51P  5.22P  5.84P  6.66P  7.40P  8.16P  9.20P   10.98P  11.22P  11.14P  10.74P  
COUNT9696969596969596965850969696
MAX7.657.987.427.017.297.487.958.339.229.5810.9811.2211.3511.29
MIN4.175.645.494.724.644.785.396.107.178.6810.3810.6810.9210.66

Explanation
  P  Provisional data subject to revision.